This is the latest recevied weather packets stored in our database for station/object K0TNT-10. If no packets are shown the sender has not sent any weather packets the latest 10 day(s).
| Time | Temp. | Humidity | Pressure | Rain* | Wind** | Luminosity | Snow |
|---|---|---|---|---|---|---|---|
| 1777947346 | 22.78° C | 45% | 1001.5 hPa | 0 mm | - | - | - |
| 1777945518 | 22.78° C | 55% | 1000.6 hPa | 0 mm | - | - | - |
| 1777943730 | 23.89° C | 50% | 1000.2 hPa | 0 mm | - | - | - |
| 1777942836 | 25° C | 47% | 1000 hPa | 0 mm | - | - | - |
| 1777940120 | 26.67° C | 40% | 1000.1 hPa | 0 mm | - | - | - |
| 1777937405 | 28.33° C | 37% | 1000.1 hPa | 0 mm | - | - | - |
| 1777926611 | 29.44° C | 30% | 1000.7 hPa | 0 mm | - | - | - |
| 1777919457 | 30.56° C | 29% | 1001.3 hPa | 0 mm | - | - | - |
| 1777915807 | 27.78° C | 38% | 1001.5 hPa | 0 mm | - | - | - |
| 1777914941 | 27.78° C | 37% | 1001.6 hPa | 0 mm | - | - | - |
| 1777907753 | 22.22° C | 46% | 1002.1 hPa | 0 mm | - | - | - |
| 1777906843 | 21.67° C | 47% | 1002.1 hPa | 0 mm | - | - | - |
| 1777905033 | 20.56° C | 51% | 1002.3 hPa | 0 mm | - | - | - |
| 1777900515 | 17.22° C | 67% | 1002.1 hPa | 0 mm | - | - | - |
| 1777896038 | 11.11° C | 89% | 1001.7 hPa | 0 mm | - | - | - |
| 1777891521 | 11.11° C | 85% | 1002.2 hPa | 0 mm | - | - | - |
| 1777886120 | 11.67° C | 81% | 1003 hPa | 0 mm | - | - | - |
| 1777885239 | 12.22° C | 82% | 1003 hPa | 0 mm | - | - | - |
| 1777884332 | 12.22° C | 82% | 1003.4 hPa | 0 mm | - | - | - |
| 1777879846 | 13.33° C | 78% | 1003.9 hPa | 0 mm | - | - | - |
| 1777878906 | 13.89° C | 76% | 1004.2 hPa | 0 mm | - | - | - |
| 1777874467 | 15.56° C | 67% | 1005.1 hPa | 0 mm | - | - | - |
| 1777862757 | 19.44° C | 59% | 1006.6 hPa | 0 mm | - | - | - |
| 1777860034 | 19.44° C | 57% | 1006 hPa | 0 mm | - | - | - |
| 1777858237 | 21.11° C | 53% | 1006 hPa | 0 mm | - | - | - |
* Rain latest hour (hover to see other rain measurements)
** Current wind speed in m/s (hover to see current wind gust speed)